sensor_id;sensor_type;location;lat;lon;timestamp;P1;durP1;ratioP1;P2;durP2;ratioP2
52620;SDS011;38515;53.160;6.990;2023-08-24T00:02:11;717.38;;;654.83;;
52620;SDS011;38515;53.160;6.990;2023-08-24T00:04:37;807.38;;;734.47;;
52620;SDS011;38515;53.160;6.990;2023-08-24T00:07:03;774.08;;;707.35;;
52620;SDS011;38515;53.160;6.990;2023-08-24T00:09:29;740.13;;;674.80;;
52620;SDS011;38515;53.160;6.990;2023-08-24T00:11:55;802.08;;;728.67;;
52620;SDS011;38515;53.160;6.990;2023-08-24T00:14:20;801.20;;;727.22;;
52620;SDS011;38515;53.160;6.990;2023-08-24T00:16:46;797.70;;;726.45;;
52620;SDS011;38515;53.160;6.990;2023-08-24T00:19:12;834.33;;;758.17;;
52620;SDS011;38515;53.160;6.990;2023-08-24T00:21:38;788.08;;;718.75;;
52620;SDS011;38515;53.160;6.990;2023-08-24T00:24:04;774.03;;;706.92;;
52620;SDS011;38515;53.160;6.990;2023-08-24T00:26:30;784.05;;;715.67;;
52620;SDS011;38515;53.160;6.990;2023-08-24T00:28:56;800.03;;;727.95;;
52620;SDS011;38515;53.160;6.990;2023-08-24T00:31:21;866.90;;;783.78;;
52620;SDS011;38515;53.160;6.990;2023-08-24T00:33:47;842.63;;;762.97;;
52620;SDS011;38515;53.160;6.990;2023-08-24T00:36:15;786.05;;;714.10;;
52620;SDS011;38515;53.160;6.990;2023-08-24T00:38:43;856.53;;;774.90;;
52620;SDS011;38515;53.160;6.990;2023-08-24T00:41:09;834.65;;;757.20;;
52620;SDS011;38515;53.160;6.990;2023-08-24T00:43:35;802.60;;;730.17;;
52620;SDS011;38515;53.160;6.990;2023-08-24T00:46:01;848.63;;;769.70;;
52620;SDS011;38515;53.160;6.990;2023-08-24T00:48:29;808.03;;;735.35;;
52620;SDS011;38515;53.160;6.990;2023-08-24T00:50:57;776.25;;;705.45;;
52620;SDS011;38515;53.160;6.990;2023-08-24T00:53:24;820.83;;;742.40;;
52620;SDS011;38515;53.160;6.990;2023-08-24T00:55:52;817.10;;;743.20;;
52620;SDS011;38515;53.160;6.990;2023-08-24T00:58:18;750.03;;;682.65;;
52620;SDS011;38515;53.160;6.990;2023-08-24T01:00:45;748.60;;;682.15;;
52620;SDS011;38515;53.160;6.990;2023-08-24T01:03:11;823.28;;;747.70;;
52620;SDS011;38515;53.160;6.990;2023-08-24T01:05:37;833.40;;;756.50;;
52620;SDS011;38515;53.160;6.990;2023-08-24T01:08:03;861.03;;;778.97;;
52620;SDS011;38515;53.160;6.990;2023-08-24T01:10:41;837.80;;;758.58;;
52620;SDS011;38515;53.160;6.990;2023-08-24T01:13:15;747.42;;;680.20;;
52620;SDS011;38515;53.160;6.990;2023-08-24T01:15:55;767.47;;;698.85;;
52620;SDS011;38515;53.160;6.990;2023-08-24T01:18:29;738.53;;;671.75;;
52620;SDS011;38515;53.160;6.990;2023-08-24T01:20:55;790.22;;;714.53;;
52620;SDS011;38515;53.160;6.990;2023-08-24T01:26:19;731.00;;;665.63;;
52620;SDS011;38515;53.160;6.990;2023-08-24T01:28:46;762.38;;;690.28;;
52620;SDS011;38515;53.160;6.990;2023-08-24T01:31:13;768.80;;;701.05;;
52620;SDS011;38515;53.160;6.990;2023-08-24T01:33:45;820.58;;;743.92;;
52620;SDS011;38515;53.160;6.990;2023-08-24T01:36:12;751.08;;;680.13;;
52620;SDS011;38515;53.160;6.990;2023-08-24T01:38:41;783.45;;;711.22;;
52620;SDS011;38515;53.160;6.990;2023-08-24T01:43:46;838.47;;;760.15;;
52620;SDS011;38515;53.160;6.990;2023-08-24T01:46:17;768.65;;;699.58;;
52620;SDS011;38515;53.160;6.990;2023-08-24T01:48:46;730.22;;;666.78;;
52620;SDS011;38515;53.160;6.990;2023-08-24T01:51:13;789.55;;;715.72;;
52620;SDS011;38515;53.160;6.990;2023-08-24T01:53:40;737.20;;;669.80;;
52620;SDS011;38515;53.160;6.990;2023-08-24T01:56:10;823.92;;;746.83;;
52620;SDS011;38515;53.160;6.990;2023-08-24T01:58:36;792.30;;;720.45;;
52620;SDS011;38515;53.160;6.990;2023-08-24T02:01:03;761.55;;;694.60;;
52620;SDS011;38515;53.160;6.990;2023-08-24T02:03:30;827.53;;;751.47;;
52620;SDS011;38515;53.160;6.990;2023-08-24T02:05:56;825.22;;;749.83;;
52620;SDS011;38515;53.160;6.990;2023-08-24T02:08:22;802.63;;;728.50;;
52620;SDS011;38515;53.160;6.990;2023-08-24T02:10:48;745.95;;;680.42;;
52620;SDS011;38515;53.160;6.990;2023-08-24T02:13:13;687.47;;;629.97;;
52620;SDS011;38515;53.160;6.990;2023-08-24T02:15:39;792.28;;;720.58;;
52620;SDS011;38515;53.160;6.990;2023-08-24T02:18:06;787.75;;;713.17;;
52620;SDS011;38515;53.160;6.990;2023-08-24T02:20:36;774.70;;;705.35;;
52620;SDS011;38515;53.160;6.990;2023-08-24T02:23:03;768.33;;;699.65;;
52620;SDS011;38515;53.160;6.990;2023-08-24T02:25:29;845.80;;;762.28;;
52620;SDS011;38515;53.160;6.990;2023-08-24T02:27:55;781.50;;;713.72;;
52620;SDS011;38515;53.160;6.990;2023-08-24T02:30:21;835.65;;;756.03;;
52620;SDS011;38515;53.160;6.990;2023-08-24T02:32:47;816.55;;;738.83;;
52620;SDS011;38515;53.160;6.990;2023-08-24T02:35:13;780.80;;;709.30;;
52620;SDS011;38515;53.160;6.990;2023-08-24T02:37:39;834.50;;;755.38;;
52620;SDS011;38515;53.160;6.990;2023-08-24T02:40:05;832.90;;;755.17;;
52620;SDS011;38515;53.160;6.990;2023-08-24T02:42:31;849.30;;;768.00;;
52620;SDS011;38515;53.160;6.990;2023-08-24T02:44:58;841.30;;;761.33;;
52620;SDS011;38515;53.160;6.990;2023-08-24T02:47:24;822.20;;;745.70;;
52620;SDS011;38515;53.160;6.990;2023-08-24T02:49:50;856.85;;;774.53;;
52620;SDS011;38515;53.160;6.990;2023-08-24T02:52:16;846.92;;;765.97;;
52620;SDS011;38515;53.160;6.990;2023-08-24T02:54:42;804.72;;;730.45;;
52620;SDS011;38515;53.160;6.990;2023-08-24T02:57:08;803.40;;;731.05;;
52620;SDS011;38515;53.160;6.990;2023-08-24T02:59:34;800.85;;;728.92;;
52620;SDS011;38515;53.160;6.990;2023-08-24T03:02:01;785.35;;;712.60;;
52620;SDS011;38515;53.160;6.990;2023-08-24T03:04:26;820.97;;;741.40;;
52620;SDS011;38515;53.160;6.990;2023-08-24T03:06:52;758.90;;;693.80;;
52620;SDS011;38515;53.160;6.990;2023-08-24T03:09:18;745.90;;;682.22;;
52620;SDS011;38515;53.160;6.990;2023-08-24T03:11:44;803.05;;;729.10;;
52620;SDS011;38515;53.160;6.990;2023-08-24T03:14:10;836.58;;;757.42;;
52620;SDS011;38515;53.160;6.990;2023-08-24T03:16:37;766.05;;;695.38;;
52620;SDS011;38515;53.160;6.990;2023-08-24T03:19:05;792.40;;;718.15;;
52620;SDS011;38515;53.160;6.990;2023-08-24T03:21:31;841.58;;;759.40;;
52620;SDS011;38515;53.160;6.990;2023-08-24T03:23:57;760.03;;;692.72;;
52620;SDS011;38515;53.160;6.990;2023-08-24T03:26:23;731.55;;;665.42;;
52620;SDS011;38515;53.160;6.990;2023-08-24T03:28:49;824.78;;;744.97;;
52620;SDS011;38515;53.160;6.990;2023-08-24T03:31:15;803.78;;;728.42;;
52620;SDS011;38515;53.160;6.990;2023-08-24T03:33:41;749.58;;;684.22;;
52620;SDS011;38515;53.160;6.990;2023-08-24T03:36:07;734.25;;;670.55;;
52620;SDS011;38515;53.160;6.990;2023-08-24T03:38:33;750.28;;;685.33;;
52620;SDS011;38515;53.160;6.990;2023-08-24T03:40:59;819.25;;;741.78;;
52620;SDS011;38515;53.160;6.990;2023-08-24T03:43:26;801.90;;;726.22;;
52620;SDS011;38515;53.160;6.990;2023-08-24T03:45:52;745.88;;;679.60;;
52620;SDS011;38515;53.160;6.990;2023-08-24T03:48:17;773.08;;;702.22;;
52620;SDS011;38515;53.160;6.990;2023-08-24T03:50:43;819.47;;;741.63;;
52620;SDS011;38515;53.160;6.990;2023-08-24T03:53:09;827.60;;;748.00;;
52620;SDS011;38515;53.160;6.990;2023-08-24T03:55:35;746.92;;;679.40;;
52620;SDS011;38515;53.160;6.990;2023-08-24T03:58:01;847.60;;;766.33;;
52620;SDS011;38515;53.160;6.990;2023-08-24T04:00:26;833.80;;;754.80;;
52620;SDS011;38515;53.160;6.990;2023-08-24T04:02:52;809.00;;;731.72;;
52620;SDS011;38515;53.160;6.990;2023-08-24T04:05:18;800.50;;;728.78;;
52620;SDS011;38515;53.160;6.990;2023-08-24T04:07:44;754.03;;;687.05;;
52620;SDS011;38515;53.160;6.990;2023-08-24T04:10:10;739.83;;;673.03;;
52620;SDS011;38515;53.160;6.990;2023-08-24T04:12:36;794.97;;;722.30;;
52620;SDS011;38515;53.160;6.990;2023-08-24T04:15:03;772.75;;;702.65;;
52620;SDS011;38515;53.160;6.990;2023-08-24T04:17:30;814.58;;;738.85;;
52620;SDS011;38515;53.160;6.990;2023-08-24T04:19:56;820.03;;;744.28;;
52620;SDS011;38515;53.160;6.990;2023-08-24T04:22:21;799.13;;;723.05;;
52620;SDS011;38515;53.160;6.990;2023-08-24T04:24:47;779.22;;;706.65;;
52620;SDS011;38515;53.160;6.990;2023-08-24T04:27:14;844.45;;;764.53;;
52620;SDS011;38515;53.160;6.990;2023-08-24T04:29:39;835.83;;;758.05;;
52620;SDS011;38515;53.160;6.990;2023-08-24T04:32:05;862.88;;;780.17;;
52620;SDS011;38515;53.160;6.990;2023-08-24T04:34:31;831.00;;;751.35;;
52620;SDS011;38515;53.160;6.990;2023-08-24T04:36:57;755.75;;;688.58;;
52620;SDS011;38515;53.160;6.990;2023-08-24T04:39:23;877.25;;;790.70;;
52620;SDS011;38515;53.160;6.990;2023-08-24T04:41:49;800.00;;;727.25;;
52620;SDS011;38515;53.160;6.990;2023-08-24T04:44:15;834.33;;;756.85;;
52620;SDS011;38515;53.160;6.990;2023-08-24T04:46:41;831.92;;;754.33;;
52620;SDS011;38515;53.160;6.990;2023-08-24T04:49:07;832.20;;;754.85;;
52620;SDS011;38515;53.160;6.990;2023-08-24T04:51:33;774.03;;;706.75;;
52620;SDS011;38515;53.160;6.990;2023-08-24T04:53:59;839.67;;;758.97;;
52620;SDS011;38515;53.160;6.990;2023-08-24T04:56:25;861.60;;;775.40;;
52620;SDS011;38515;53.160;6.990;2023-08-24T04:58:54;834.15;;;756.00;;
52620;SDS011;38515;53.160;6.990;2023-08-24T05:01:25;843.27;;;763.73;;
52620;SDS011;38515;53.160;6.990;2023-08-24T05:03:51;809.75;;;733.80;;
52620;SDS011;38515;53.160;6.990;2023-08-24T05:06:20;807.25;;;731.58;;
52620;SDS011;38515;53.160;6.990;2023-08-24T05:08:46;779.70;;;709.63;;
52620;SDS011;38515;53.160;6.990;2023-08-24T05:11:12;822.88;;;746.47;;
52620;SDS011;38515;53.160;6.990;2023-08-24T05:13:42;836.17;;;758.17;;
52620;SDS011;38515;53.160;6.990;2023-08-24T05:16:09;815.45;;;740.20;;
52620;SDS011;38515;53.160;6.990;2023-08-24T05:18:35;753.97;;;687.60;;
52620;SDS011;38515;53.160;6.990;2023-08-24T05:21:04;747.35;;;681.15;;
52620;SDS011;38515;53.160;6.990;2023-08-24T05:23:31;797.53;;;724.85;;
52620;SDS011;38515;53.160;6.990;2023-08-24T05:25:58;781.97;;;712.17;;
52620;SDS011;38515;53.160;6.990;2023-08-24T05:28:25;752.97;;;685.00;;
52620;SDS011;38515;53.160;6.990;2023-08-24T05:30:52;739.50;;;672.63;;
52620;SDS011;38515;53.160;6.990;2023-08-24T05:33:22;751.67;;;684.75;;
52620;SDS011;38515;53.160;6.990;2023-08-24T05:35:49;816.90;;;741.67;;
52620;SDS011;38515;53.160;6.990;2023-08-24T05:38:15;849.80;;;768.90;;
52620;SDS011;38515;53.160;6.990;2023-08-24T05:40:42;820.00;;;743.58;;
52620;SDS011;38515;53.160;6.990;2023-08-24T05:43:09;850.75;;;770.08;;
52620;SDS011;38515;53.160;6.990;2023-08-24T05:45:35;798.60;;;724.00;;
52620;SDS011;38515;53.160;6.990;2023-08-24T05:48:01;850.95;;;769.97;;
52620;SDS011;38515;53.160;6.990;2023-08-24T05:50:27;841.80;;;760.92;;
52620;SDS011;38515;53.160;6.990;2023-08-24T05:52:53;842.58;;;763.55;;
52620;SDS011;38515;53.160;6.990;2023-08-24T05:55:19;827.83;;;750.92;;
52620;SDS011;38515;53.160;6.990;2023-08-24T05:57:45;853.90;;;769.33;;
52620;SDS011;38515;53.160;6.990;2023-08-24T06:00:11;828.38;;;752.15;;
52620;SDS011;38515;53.160;6.990;2023-08-24T06:02:37;859.75;;;780.00;;
52620;SDS011;38515;53.160;6.990;2023-08-24T06:05:04;857.97;;;775.70;;
52620;SDS011;38515;53.160;6.990;2023-08-24T06:07:31;822.45;;;747.35;;
52620;SDS011;38515;53.160;6.990;2023-08-24T06:09:57;885.78;;;799.55;;
52620;SDS011;38515;53.160;6.990;2023-08-24T06:12:23;772.38;;;701.55;;
52620;SDS011;38515;53.160;6.990;2023-08-24T06:14:49;784.42;;;712.72;;
52620;SDS011;38515;53.160;6.990;2023-08-24T06:17:15;781.28;;;708.00;;
52620;SDS011;38515;53.160;6.990;2023-08-24T06:19:41;768.22;;;695.95;;
52620;SDS011;38515;53.160;6.990;2023-08-24T06:22:07;846.50;;;765.35;;
52620;SDS011;38515;53.160;6.990;2023-08-24T06:24:33;827.38;;;754.72;;
52620;SDS011;38515;53.160;6.990;2023-08-24T06:27:00;794.75;;;725.70;;
52620;SDS011;38515;53.160;6.990;2023-08-24T06:29:27;768.25;;;703.58;;
52620;SDS011;38515;53.160;6.990;2023-08-24T06:31:54;711.53;;;651.25;;
52620;SDS011;38515;53.160;6.990;2023-08-24T06:34:20;754.88;;;692.45;;
52620;SDS011;38515;53.160;6.990;2023-08-24T06:36:46;742.20;;;681.42;;
52620;SDS011;38515;53.160;6.990;2023-08-24T06:39:12;715.28;;;657.22;;
52620;SDS011;38515;53.160;6.990;2023-08-24T06:41:38;734.60;;;675.38;;
52620;SDS011;38515;53.160;6.990;2023-08-24T06:44:04;725.17;;;668.00;;
52620;SDS011;38515;53.160;6.990;2023-08-24T06:46:30;723.67;;;665.80;;
52620;SDS011;38515;53.160;6.990;2023-08-24T06:48:56;737.92;;;678.42;;
52620;SDS011;38515;53.160;6.990;2023-08-24T06:51:22;766.78;;;704.85;;
52620;SDS011;38515;53.160;6.990;2023-08-24T06:53:49;753.00;;;692.55;;
52620;SDS011;38515;53.160;6.990;2023-08-24T06:56:15;718.25;;;662.25;;
52620;SDS011;38515;53.160;6.990;2023-08-24T06:58:42;737.78;;;678.72;;
52620;SDS011;38515;53.160;6.990;2023-08-24T07:01:09;729.97;;;670.70;;
52620;SDS011;38515;53.160;6.990;2023-08-24T07:03:36;741.45;;;681.22;;
52620;SDS011;38515;53.160;6.990;2023-08-24T07:06:02;749.13;;;688.10;;
52620;SDS011;38515;53.160;6.990;2023-08-24T07:08:30;735.72;;;678.40;;
52620;SDS011;38515;53.160;6.990;2023-08-24T07:10:56;688.00;;;634.38;;
52620;SDS011;38515;53.160;6.990;2023-08-24T07:13:22;788.25;;;725.95;;
52620;SDS011;38515;53.160;6.990;2023-08-24T07:15:48;737.28;;;679.05;;
52620;SDS011;38515;53.160;6.990;2023-08-24T07:18:15;758.38;;;698.20;;
52620;SDS011;38515;53.160;6.990;2023-08-24T07:20:40;785.92;;;722.80;;
52620;SDS011;38515;53.160;6.990;2023-08-24T07:23:06;745.60;;;685.58;;
52620;SDS011;38515;53.160;6.990;2023-08-24T07:25:32;768.45;;;707.55;;
52620;SDS011;38515;53.160;6.990;2023-08-24T07:27:58;762.53;;;701.58;;
52620;SDS011;38515;53.160;6.990;2023-08-24T07:30:26;771.58;;;711.45;;
52620;SDS011;38515;53.160;6.990;2023-08-24T07:32:52;747.15;;;688.33;;
52620;SDS011;38515;53.160;6.990;2023-08-24T07:35:21;780.47;;;717.28;;
52620;SDS011;38515;53.160;6.990;2023-08-24T07:37:50;784.10;;;720.35;;
52620;SDS011;38515;53.160;6.990;2023-08-24T07:40:16;787.03;;;724.15;;
52620;SDS011;38515;53.160;6.990;2023-08-24T07:42:46;785.20;;;723.72;;
52620;SDS011;38515;53.160;6.990;2023-08-24T07:45:18;781.58;;;721.22;;
52620;SDS011;38515;53.160;6.990;2023-08-24T07:47:44;791.58;;;727.60;;
52620;SDS011;38515;53.160;6.990;2023-08-24T07:50:10;776.90;;;714.55;;
52620;SDS011;38515;53.160;6.990;2023-08-24T07:52:40;760.75;;;700.25;;
52620;SDS011;38515;53.160;6.990;2023-08-24T07:55:06;812.70;;;747.03;;
52620;SDS011;38515;53.160;6.990;2023-08-24T07:57:35;774.90;;;713.60;;
52620;SDS011;38515;53.160;6.990;2023-08-24T08:00:02;801.85;;;737.50;;
52620;SDS011;38515;53.160;6.990;2023-08-24T08:02:29;707.55;;;648.95;;
52620;SDS011;38515;53.160;6.990;2023-08-24T08:04:57;634.40;;;583.95;;
52620;SDS011;38515;53.160;6.990;2023-08-24T08:07:27;596.38;;;548.00;;
52620;SDS011;38515;53.160;6.990;2023-08-24T08:09:53;616.33;;;566.22;;
52620;SDS011;38515;53.160;6.990;2023-08-24T08:12:19;564.15;;;522.17;;
52620;SDS011;38515;53.160;6.990;2023-08-24T08:14:45;592.47;;;547.10;;
52620;SDS011;38515;53.160;6.990;2023-08-24T08:17:14;532.42;;;491.55;;
52620;SDS011;38515;53.160;6.990;2023-08-24T08:19:40;541.72;;;501.05;;
52620;SDS011;38515;53.160;6.990;2023-08-24T08:22:06;429.77;;;400.50;;
52620;SDS011;38515;53.160;6.990;2023-08-24T08:24:32;405.70;;;379.63;;
52620;SDS011;38515;53.160;6.990;2023-08-24T08:26:58;486.63;;;453.05;;
52620;SDS011;38515;53.160;6.990;2023-08-24T08:29:25;413.02;;;385.23;;
52620;SDS011;38515;53.160;6.990;2023-08-24T08:31:50;491.25;;;454.20;;
52620;SDS011;38515;53.160;6.990;2023-08-24T08:34:16;529.72;;;487.52;;
52620;SDS011;38515;53.160;6.990;2023-08-24T08:36:42;421.92;;;390.20;;
52620;SDS011;38515;53.160;6.990;2023-08-24T08:39:08;421.10;;;392.10;;
52620;SDS011;38515;53.160;6.990;2023-08-24T08:41:38;431.58;;;400.05;;
52620;SDS011;38515;53.160;6.990;2023-08-24T08:44:12;359.75;;;338.17;;
52620;SDS011;38515;53.160;6.990;2023-08-24T08:46:42;431.70;;;399.45;;
52620;SDS011;38515;53.160;6.990;2023-08-24T08:49:09;428.17;;;398.38;;
52620;SDS011;38515;53.160;6.990;2023-08-24T08:51:37;375.25;;;352.50;;
52620;SDS011;38515;53.160;6.990;2023-08-24T08:54:03;470.33;;;434.40;;
52620;SDS011;38515;53.160;6.990;2023-08-24T08:56:31;426.95;;;398.73;;
52620;SDS011;38515;53.160;6.990;2023-08-24T08:58:57;451.45;;;417.02;;
52620;SDS011;38515;53.160;6.990;2023-08-24T09:01:26;474.35;;;438.98;;
52620;SDS011;38515;53.160;6.990;2023-08-24T09:03:53;495.52;;;453.98;;
52620;SDS011;38515;53.160;6.990;2023-08-24T09:06:20;534.25;;;486.95;;
52620;SDS011;38515;53.160;6.990;2023-08-24T09:08:46;382.92;;;357.63;;
52620;SDS011;38515;53.160;6.990;2023-08-24T09:11:14;395.65;;;369.00;;
52620;SDS011;38515;53.160;6.990;2023-08-24T09:13:42;384.85;;;357.17;;
52620;SDS011;38515;53.160;6.990;2023-08-24T09:16:08;374.85;;;348.85;;
52620;SDS011;38515;53.160;6.990;2023-08-24T09:18:41;397.13;;;369.42;;
52620;SDS011;38515;53.160;6.990;2023-08-24T09:21:10;383.10;;;355.65;;
52620;SDS011;38515;53.160;6.990;2023-08-24T09:23:58;425.88;;;394.45;;
52620;SDS011;38515;53.160;6.990;2023-08-24T09:26:30;389.75;;;360.83;;
52620;SDS011;38515;53.160;6.990;2023-08-24T09:28:57;448.70;;;415.17;;
52620;SDS011;38515;53.160;6.990;2023-08-24T09:31:23;514.50;;;472.65;;
52620;SDS011;38515;53.160;6.990;2023-08-24T09:34:00;479.45;;;443.58;;
52620;SDS011;38515;53.160;6.990;2023-08-24T09:36:26;488.55;;;451.35;;
52620;SDS011;38515;53.160;6.990;2023-08-24T09:38:59;476.20;;;440.33;;
52620;SDS011;38515;53.160;6.990;2023-08-24T09:41:37;521.33;;;479.52;;
52620;SDS011;38515;53.160;6.990;2023-08-24T09:44:04;564.63;;;516.08;;
52620;SDS011;38515;53.160;6.990;2023-08-24T09:46:31;508.70;;;467.15;;
52620;SDS011;38515;53.160;6.990;2023-08-24T09:48:59;504.60;;;465.27;;
52620;SDS011;38515;53.160;6.990;2023-08-24T09:51:27;524.10;;;479.88;;
52620;SDS011;38515;53.160;6.990;2023-08-24T09:53:54;470.52;;;434.05;;
52620;SDS011;38515;53.160;6.990;2023-08-24T09:56:25;501.17;;;462.42;;
52620;SDS011;38515;53.160;6.990;2023-08-24T09:58:53;503.02;;;465.02;;
52620;SDS011;38515;53.160;6.990;2023-08-24T10:01:20;423.27;;;390.83;;
52620;SDS011;38515;53.160;6.990;2023-08-24T10:03:48;502.65;;;460.23;;
52620;SDS011;38515;53.160;6.990;2023-08-24T10:06:20;541.08;;;497.95;;
52620;SDS011;38515;53.160;6.990;2023-08-24T10:08:51;498.65;;;456.88;;
52620;SDS011;38515;53.160;6.990;2023-08-24T10:11:28;456.17;;;421.15;;
52620;SDS011;38515;53.160;6.990;2023-08-24T10:13:59;441.20;;;406.73;;
52620;SDS011;38515;53.160;6.990;2023-08-24T10:16:34;449.52;;;416.60;;
52620;SDS011;38515;53.160;6.990;2023-08-24T10:19:02;590.05;;;542.95;;
52620;SDS011;38515;53.160;6.990;2023-08-24T10:21:29;460.30;;;423.30;;
52620;SDS011;38515;53.160;6.990;2023-08-24T10:23:56;518.60;;;475.58;;
52620;SDS011;38515;53.160;6.990;2023-08-24T10:26:24;433.98;;;401.08;;
52620;SDS011;38515;53.160;6.990;2023-08-24T10:28:50;411.70;;;381.60;;
52620;SDS011;38515;53.160;6.990;2023-08-24T10:31:19;436.75;;;402.92;;
52620;SDS011;38515;53.160;6.990;2023-08-24T10:33:46;424.25;;;391.48;;
52620;SDS011;38515;53.160;6.990;2023-08-24T10:36:13;450.02;;;415.92;;
52620;SDS011;38515;53.160;6.990;2023-08-24T10:38:40;475.15;;;437.33;;
52620;SDS011;38515;53.160;6.990;2023-08-24T10:41:09;459.98;;;424.83;;
52620;SDS011;38515;53.160;6.990;2023-08-24T10:43:48;382.50;;;355.15;;
52620;SDS011;38515;53.160;6.990;2023-08-24T10:46:15;437.63;;;404.20;;
52620;SDS011;38515;53.160;6.990;2023-08-24T10:53:44;396.33;;;368.10;;
52620;SDS011;38515;53.160;6.990;2023-08-24T10:56:15;381.92;;;356.35;;
52620;SDS011;38515;53.160;6.990;2023-08-24T10:58:42;471.17;;;432.70;;
52620;SDS011;38515;53.160;6.990;2023-08-24T11:01:22;368.85;;;344.45;;
52620;SDS011;38515;53.160;6.990;2023-08-24T11:03:54;496.35;;;455.48;;
52620;SDS011;38515;53.160;6.990;2023-08-24T11:06:21;455.15;;;421.75;;
52620;SDS011;38515;53.160;6.990;2023-08-24T11:08:48;532.30;;;488.17;;
52620;SDS011;38515;53.160;6.990;2023-08-24T11:11:18;580.15;;;530.90;;
52620;SDS011;38515;53.160;6.990;2023-08-24T11:16:47;418.50;;;386.08;;
52620;SDS011;38515;53.160;6.990;2023-08-24T11:19:14;376.85;;;351.65;;
52620;SDS011;38515;53.160;6.990;2023-08-24T11:21:42;401.23;;;372.95;;
52620;SDS011;38515;53.160;6.990;2023-08-24T11:24:09;382.98;;;354.20;;
52620;SDS011;38515;53.160;6.990;2023-08-24T11:26:44;386.90;;;359.55;;
52620;SDS011;38515;53.160;6.990;2023-08-24T11:29:11;381.60;;;354.33;;
52620;SDS011;38515;53.160;6.990;2023-08-24T11:31:38;378.77;;;350.70;;
52620;SDS011;38515;53.160;6.990;2023-08-24T11:34:04;405.58;;;376.55;;
52620;SDS011;38515;53.160;6.990;2023-08-24T11:36:46;363.90;;;339.08;;
52620;SDS011;38515;53.160;6.990;2023-08-24T11:39:19;337.88;;;315.95;;
52620;SDS011;38515;53.160;6.990;2023-08-24T11:42:00;433.45;;;401.05;;
52620;SDS011;38515;53.160;6.990;2023-08-24T11:44:30;332.50;;;310.63;;
52620;SDS011;38515;53.160;6.990;2023-08-24T11:47:11;432.13;;;397.58;;
52620;SDS011;38515;53.160;6.990;2023-08-24T11:49:38;433.83;;;401.67;;
52620;SDS011;38515;53.160;6.990;2023-08-24T11:52:04;421.02;;;388.35;;
52620;SDS011;38515;53.160;6.990;2023-08-24T11:54:32;427.70;;;397.42;;
52620;SDS011;38515;53.160;6.990;2023-08-24T11:56:58;366.40;;;341.60;;
52620;SDS011;38515;53.160;6.990;2023-08-24T11:59:24;489.85;;;453.13;;
52620;SDS011;38515;53.160;6.990;2023-08-24T12:01:51;390.55;;;362.38;;
52620;SDS011;38515;53.160;6.990;2023-08-24T12:04:20;390.98;;;363.65;;
52620;SDS011;38515;53.160;6.990;2023-08-24T12:06:46;390.15;;;362.42;;
52620;SDS011;38515;53.160;6.990;2023-08-24T12:09:12;444.75;;;412.75;;
52620;SDS011;38515;53.160;6.990;2023-08-24T12:11:38;494.33;;;455.60;;
52620;SDS011;38515;53.160;6.990;2023-08-24T12:14:04;363.17;;;339.00;;
52620;SDS011;38515;53.160;6.990;2023-08-24T12:16:32;372.88;;;347.15;;
52620;SDS011;38515;53.160;6.990;2023-08-24T12:18:59;522.30;;;481.17;;
52620;SDS011;38515;53.160;6.990;2023-08-24T12:21:28;523.95;;;480.65;;
52620;SDS011;38515;53.160;6.990;2023-08-24T12:23:58;411.83;;;382.10;;
52620;SDS011;38515;53.160;6.990;2023-08-24T12:26:28;396.10;;;368.50;;
52620;SDS011;38515;53.160;6.990;2023-08-24T12:29:04;342.42;;;320.98;;
52620;SDS011;38515;53.160;6.990;2023-08-24T12:31:31;464.05;;;426.67;;
52620;SDS011;38515;53.160;6.990;2023-08-24T12:36:28;459.75;;;421.70;;
52620;SDS011;38515;53.160;6.990;2023-08-24T12:38:58;436.88;;;404.10;;
52620;SDS011;38515;53.160;6.990;2023-08-24T12:41:25;408.27;;;378.67;;
52620;SDS011;38515;53.160;6.990;2023-08-24T12:43:51;315.45;;;295.63;;
52620;SDS011;38515;53.160;6.990;2023-08-24T12:46:17;453.35;;;417.42;;
52620;SDS011;38515;53.160;6.990;2023-08-24T12:48:43;452.20;;;416.33;;
52620;SDS011;38515;53.160;6.990;2023-08-24T12:51:09;405.75;;;374.42;;
52620;SDS011;38515;53.160;6.990;2023-08-24T12:53:35;363.38;;;337.77;;
52620;SDS011;38515;53.160;6.990;2023-08-24T12:56:01;342.88;;;321.40;;
52620;SDS011;38515;53.160;6.990;2023-08-24T12:58:26;405.40;;;377.13;;
52620;SDS011;38515;53.160;6.990;2023-08-24T13:00:52;308.77;;;290.83;;
52620;SDS011;38515;53.160;6.990;2023-08-24T13:03:18;308.52;;;288.55;;
52620;SDS011;38515;53.160;6.990;2023-08-24T13:05:44;372.85;;;348.75;;
52620;SDS011;38515;53.160;6.990;2023-08-24T13:08:10;373.02;;;345.15;;
52620;SDS011;38515;53.160;6.990;2023-08-24T13:10:35;279.70;;;261.15;;
52620;SDS011;38515;53.160;6.990;2023-08-24T13:13:02;325.63;;;304.58;;
52620;SDS011;38515;53.160;6.990;2023-08-24T13:15:28;430.08;;;396.05;;
52620;SDS011;38515;53.160;6.990;2023-08-24T13:17:54;423.80;;;391.20;;
52620;SDS011;38515;53.160;6.990;2023-08-24T13:20:21;370.75;;;343.67;;
52620;SDS011;38515;53.160;6.990;2023-08-24T13:22:47;329.90;;;306.88;;
52620;SDS011;38515;53.160;6.990;2023-08-24T13:25:13;412.90;;;381.60;;
52620;SDS011;38515;53.160;6.990;2023-08-24T13:27:38;453.25;;;415.10;;
52620;SDS011;38515;53.160;6.990;2023-08-24T13:30:05;435.05;;;400.58;;
52620;SDS011;38515;53.160;6.990;2023-08-24T13:32:31;327.95;;;307.50;;
52620;SDS011;38515;53.160;6.990;2023-08-24T13:34:57;523.17;;;479.90;;
52620;SDS011;38515;53.160;6.990;2023-08-24T13:37:23;379.90;;;353.98;;
52620;SDS011;38515;53.160;6.990;2023-08-24T13:39:49;376.52;;;350.85;;
52620;SDS011;38515;53.160;6.990;2023-08-24T13:42:16;416.45;;;383.80;;
52620;SDS011;38515;53.160;6.990;2023-08-24T13:44:42;325.00;;;304.52;;
52620;SDS011;38515;53.160;6.990;2023-08-24T13:47:08;459.30;;;421.42;;
52620;SDS011;38515;53.160;6.990;2023-08-24T13:49:34;476.77;;;438.02;;
52620;SDS011;38515;53.160;6.990;2023-08-24T13:51:59;488.83;;;447.33;;
52620;SDS011;38515;53.160;6.990;2023-08-24T13:54:25;458.92;;;422.48;;
52620;SDS011;38515;53.160;6.990;2023-08-24T13:56:51;445.13;;;409.98;;
52620;SDS011;38515;53.160;6.990;2023-08-24T13:59:19;378.98;;;355.00;;
52620;SDS011;38515;53.160;6.990;2023-08-24T14:01:46;420.25;;;388.60;;
52620;SDS011;38515;53.160;6.990;2023-08-24T14:04:12;432.75;;;400.85;;
52620;SDS011;38515;53.160;6.990;2023-08-24T14:06:37;533.80;;;489.13;;
52620;SDS011;38515;53.160;6.990;2023-08-24T14:09:04;446.08;;;412.52;;
52620;SDS011;38515;53.160;6.990;2023-08-24T14:11:30;450.55;;;416.52;;
52620;SDS011;38515;53.160;6.990;2023-08-24T14:13:59;516.85;;;476.27;;